El Caraño Airport

Airport
ICAO code: 
SKUI
IATA Code: 
UIB
Summary
ICAO Region: 
CARSAM
Territory: 
Location: 
Quibdo, Choco Department
Serving: 
Quibdo
Elevation: 
204 ft
Coordinates: 
Aerial View: 
5° 41' 27.596" N, 76° 38' 39.062" W
Metar
Observation
SKUI 231600Z 00000KT 8000 BKN015 BKN080 27/24 Q1010 RMK HZ A2984
Station
Quibdo / El Carano
Date/Time
2022-01-23 16:00:00
Wind direction
Wind speed
00 kts
Lowest cloud amount
broken clouds
Temperature
27°C
Dew point
24°C
Humidity
83%
QNH
1010 hPa
Weather condition
n/a

Alvano Rey Zuniga "El Caraño" Airport is an airport serving Quibdó in the Chocó Department of Colombia.

Climatology

Tropical rainforest climate (Köppen climate classification Af)

Runways

Designator Length Width Surface Rops
13/31 1400 30 ASP No/No
Airport map: 
Aerial View: 

SKYbrary Partners:

Safety knowledge contributed by: